createdAt,value
2018-07-25T05:02:18.758Z,55.10
2018-07-25T05:07:18.731Z,80.80
2018-07-25T05:09:55.725Z,82.10
2018-07-25T05:12:29.063Z,81.80
2018-07-25T05:14:58.587Z,81.20
2018-07-25T05:17:28.057Z,81.60
2018-07-25T05:19:57.791Z,81.70
2018-07-25T05:22:27.255Z,80.60
2018-07-25T05:24:56.704Z,81.50
2018-07-25T05:27:26.475Z,81.70
2018-07-25T05:29:55.969Z,81.60
2018-07-25T05:32:25.566Z,81.60
2018-07-25T05:34:55.560Z,80.30
2018-07-25T05:37:38.207Z,80.60
2018-07-25T05:40:09.204Z,80.00
2018-07-25T05:42:38.681Z,80.90
2018-07-25T05:45:08.273Z,80.00
2018-07-25T05:47:38.102Z,81.10
2018-07-25T05:50:16.396Z,80.10
2018-07-25T05:52:46.228Z,80.10
2018-07-25T05:55:15.730Z,80.30
2018-07-25T05:57:45.281Z,80.90
2018-07-25T06:00:14.781Z,79.70
2018-07-25T06:02:44.367Z,80.00
2018-07-25T06:05:14.415Z,79.40
2018-07-25T06:07:43.826Z,79.60
2018-07-25T06:10:20.175Z,80.70
2018-07-25T06:12:49.941Z,79.70
2018-07-25T06:15:27.767Z,80.40
2018-07-25T06:17:57.623Z,80.80
2018-07-25T06:20:27.179Z,81.30
2018-07-25T06:22:56.728Z,80.40
2018-07-25T06:25:26.521Z,81.40
2018-07-25T06:27:56.043Z,81.50
2018-07-25T06:30:35.048Z,81.80
2018-07-25T06:33:04.578Z,81.30
2018-07-25T06:35:34.186Z,81.50
2018-07-25T06:38:04.203Z,81.10
2018-07-25T06:40:33.725Z,80.90
2018-07-25T06:43:03.284Z,81.00
2018-07-25T06:45:33.195Z,80.00
2018-07-25T06:48:03.067Z,80.10
2018-07-25T06:50:32.609Z,78.90
2018-07-25T06:53:02.458Z,78.60
2018-07-25T06:55:32.216Z,79.40
2018-07-25T06:58:01.755Z,79.90
2018-07-25T07:00:31.367Z,79.10
2018-07-25T07:03:01.129Z,79.10
2018-07-25T07:05:30.769Z,78.50
2018-07-25T07:08:00.313Z,78.20
2018-07-25T07:10:29.922Z,78.30
2018-07-25T07:13:05.429Z,78.00
2018-07-25T07:15:34.910Z,78.60
2018-07-25T07:18:11.748Z,77.60
2018-07-25T07:20:41.221Z,78.40
2018-07-25T07:23:11.083Z,77.40
2018-07-25T07:25:40.686Z,76.50
2018-07-25T07:28:25.230Z,77.00
2018-07-25T07:30:56.068Z,77.10
2018-07-25T07:33:25.782Z,77.00
2018-07-25T07:35:55.778Z,77.00
2018-07-25T07:38:25.442Z,77.00
2018-07-25T07:40:55.034Z,76.90
2018-07-25T07:43:25.114Z,76.40
2018-07-25T07:45:54.618Z,75.60
2018-07-25T07:48:31.045Z,76.30
2018-07-25T07:51:00.960Z,76.00
2018-07-25T07:53:30.592Z,76.50
2018-07-25T07:56:00.155Z,76.50
2018-07-25T07:58:30.121Z,76.20
2018-07-25T08:00:59.719Z,75.60
2018-07-25T08:03:29.250Z,74.20
2018-07-25T08:05:58.830Z,75.20
2018-07-25T08:08:28.482Z,75.10
2018-07-25T08:11:00.297Z,75.10
2018-07-25T08:13:35.532Z,75.10
2018-07-25T08:16:10.214Z,75.10
2018-07-25T08:18:39.982Z,75.20
2018-07-25T08:21:09.703Z,75.30
2018-07-25T08:23:39.335Z,75.00
2018-07-25T08:26:09.238Z,74.20
2018-07-25T08:28:38.990Z,74.30
2018-07-25T08:31:09.191Z,73.80
2018-07-25T08:33:39.047Z,73.70
2018-07-25T08:36:08.673Z,73.70
2018-07-25T08:38:41.510Z,72.00
2018-07-25T08:41:12.020Z,72.70
2018-07-25T08:43:42.961Z,71.80
2018-07-25T08:46:14.540Z,73.20
2018-07-25T08:48:44.612Z,70.90
2018-07-25T08:51:14.857Z,69.60
2018-07-25T08:53:44.764Z,68.50
2018-07-25T08:56:15.364Z,69.80
2018-07-25T08:58:45.260Z,69.00
2018-07-25T09:01:15.106Z,69.00
2018-07-25T09:03:45.027Z,68.60
2018-07-25T09:06:14.763Z,68.90
2018-07-25T09:08:44.850Z,67.60
2018-07-25T09:11:22.169Z,67.90
2018-07-25T09:13:53.329Z,68.70
2018-07-25T09:16:23.137Z,68.70
2018-07-25T09:18:54.287Z,68.40
2018-07-25T09:21:24.501Z,68.30
2018-07-25T09:23:54.242Z,68.00
2018-07-25T09:26:24.010Z,67.00
2018-07-25T09:28:54.324Z,66.40
2018-07-25T09:31:24.096Z,64.80
2018-07-25T09:33:53.849Z,65.00
2018-07-25T09:36:23.962Z,65.90
2018-07-25T09:38:53.837Z,64.00
2018-07-25T09:41:23.520Z,64.20
2018-07-25T09:43:53.815Z,64.30
2018-07-25T09:46:30.559Z,64.80
2018-07-25T09:49:00.406Z,64.00
2018-07-25T09:51:35.862Z,64.80
2018-07-25T09:54:05.705Z,65.00
2018-07-25T09:56:35.389Z,64.90
2018-07-25T09:59:05.187Z,64.40
2018-07-25T10:01:35.025Z,64.50
2018-07-25T10:04:05.378Z,63.50
2018-07-25T10:06:35.169Z,63.20
2018-07-25T10:09:06.957Z,62.40
2018-07-25T10:11:37.033Z,62.60
2018-07-25T10:14:06.864Z,62.70
2018-07-25T10:16:36.848Z,62.30
2018-07-25T10:19:06.885Z,62.20
2018-07-25T10:21:36.621Z,61.50
2018-07-25T10:24:06.379Z,61.40
2018-07-25T10:26:41.809Z,62.00
2018-07-25T10:29:11.683Z,60.90
2018-07-25T10:31:41.934Z,60.10
2018-07-25T10:34:12.219Z,60.10
2018-07-25T10:36:41.875Z,60.20
2018-07-25T10:39:11.701Z,59.20
2018-07-25T10:41:41.500Z,59.20
2018-07-25T10:44:12.053Z,59.80
2018-07-25T10:46:43.147Z,59.10
2018-07-25T10:49:16.573Z,59.00
2018-07-25T10:51:46.367Z,58.70
2018-07-25T10:54:16.055Z,56.80
2018-07-25T10:56:53.113Z,56.40
2018-07-25T10:59:23.073Z,55.80
2018-07-25T11:01:52.680Z,55.70
2018-07-25T11:04:22.347Z,55.20
2018-07-25T11:06:52.261Z,54.70
2018-07-25T11:09:22.125Z,54.60
2018-07-25T11:11:51.857Z,54.40
2018-07-25T11:14:21.943Z,55.00
2018-07-25T11:16:51.655Z,56.10
2018-07-25T11:19:30.520Z,56.00
2018-07-25T11:22:00.226Z,56.60
2018-07-25T11:24:30.305Z,55.20
2018-07-25T11:27:00.750Z,55.40
2018-07-25T11:29:30.660Z,54.80
2018-07-25T11:32:00.253Z,54.50
2018-07-25T11:34:29.925Z,54.00
2018-07-25T11:36:59.830Z,53.30
2018-07-25T11:39:30.110Z,53.00
2018-07-25T11:42:00.318Z,51.70
2018-07-25T11:44:29.873Z,51.10
2018-07-25T11:47:10.351Z,52.10
2018-07-25T11:49:40.462Z,51.70
2018-07-25T11:52:10.018Z,50.40
2018-07-25T11:54:39.947Z,48.60
2018-07-25T11:57:09.790Z,47.20
2018-07-25T11:59:39.395Z,48.20
2018-07-25T12:02:08.898Z,46.10
2018-07-25T12:04:38.719Z,46.80
2018-07-25T12:07:08.356Z,45.20
2018-07-25T12:09:43.924Z,45.40
2018-07-25T12:12:14.085Z,44.20
2018-07-25T12:14:43.752Z,41.70
2018-07-25T12:17:20.542Z,42.80
2018-07-25T12:19:50.509Z,41.60
2018-07-25T12:22:20.196Z,40.90
2018-07-25T12:24:49.805Z,40.80
2018-07-25T12:27:19.661Z,39.60
2018-07-25T12:29:49.598Z,38.30
2018-07-25T12:32:19.112Z,38.90
2018-07-25T12:34:48.988Z,38.80
2018-07-25T12:37:18.652Z,39.80
2018-07-25T12:39:48.348Z,39.40
2018-07-25T12:42:18.213Z,39.70
2018-07-25T12:44:47.838Z,40.80
2018-07-25T12:47:17.550Z,39.40
2018-07-25T14:12:26.809Z,28.50
2018-07-25T14:15:09.401Z,29.50
2018-07-25T14:17:39.283Z,29.80
2018-07-25T14:20:08.944Z,32.40
2018-07-25T14:22:38.691Z,32.60
2018-07-25T14:25:08.479Z,31.20
2018-07-25T14:27:38.283Z,30.80
2018-07-25T14:30:08.069Z,30.90
2018-07-25T14:32:37.752Z,30.10
2018-07-25T14:35:07.499Z,33.70
2018-07-25T14:42:43.896Z,36.80
2018-07-25T14:47:43.231Z,37.30
2018-07-25T14:50:13.378Z,37.70
2018-07-25T14:52:46.855Z,37.90
2018-07-25T14:55:17.517Z,36.00
2018-07-25T14:57:55.405Z,37.00
2018-07-25T15:00:26.048Z,36.20
2018-07-25T15:02:56.591Z,36.60
2018-07-25T15:05:27.275Z,36.00
2018-07-25T15:07:57.636Z,35.80
2018-07-25T15:10:27.498Z,35.00
2018-07-25T15:12:58.927Z,34.80
2018-07-25T15:15:29.491Z,34.80
2018-07-25T15:18:06.321Z,35.40
2018-07-25T15:20:42.117Z,35.00
2018-07-25T15:23:12.318Z,35.10
2018-07-25T15:25:42.103Z,35.50
2018-07-25T15:28:17.730Z,36.40
2018-07-25T15:30:49.204Z,37.50
2018-07-25T15:34:10.534Z,36.90
2018-07-25T15:36:51.804Z,38.40
2018-07-25T15:39:24.601Z,38.70
2018-07-25T15:44:10.320Z,38.50
2018-07-25T15:46:40.943Z,38.90
2018-07-25T15:49:15.654Z,39.70
2018-07-25T15:51:46.096Z,40.00
2018-07-25T15:54:20.249Z,40.40
2018-07-25T15:56:50.563Z,40.10
2018-07-25T15:59:20.278Z,39.20
2018-07-25T16:01:50.270Z,38.60
2018-07-25T16:04:20.294Z,38.90
2018-07-25T16:06:50.808Z,37.80
2018-07-25T16:09:20.615Z,38.50
2018-07-25T16:12:01.826Z,38.20
2018-07-25T16:14:31.995Z,37.30
2018-07-25T16:17:02.075Z,38.30
2018-07-25T16:19:32.015Z,40.60
2018-07-25T16:22:02.752Z,37.60
2018-07-25T16:24:33.279Z,36.60
2018-07-25T16:27:03.843Z,37.50
2018-07-25T16:29:35.065Z,38.50
2018-07-25T16:32:05.128Z,39.50
2018-07-25T16:34:34.906Z,39.30
2018-07-25T16:37:12.416Z,38.40
2018-07-25T16:39:42.322Z,40.60
2018-07-25T16:42:16.513Z,39.70
2018-07-25T16:44:46.645Z,40.40
2018-07-25T16:47:16.581Z,39.60
2018-07-25T16:49:46.483Z,41.00
2018-07-25T16:52:20.656Z,41.00
2018-07-25T16:54:50.917Z,41.40
2018-07-25T16:57:20.849Z,41.40
2018-07-25T16:59:51.882Z,40.70
2018-07-25T17:02:40.354Z,42.70
2018-07-25T17:05:24.922Z,42.40
2018-07-25T17:07:54.898Z,44.40
2018-07-25T17:10:25.538Z,42.90
2018-07-25T17:12:56.782Z,42.30
2018-07-25T17:15:28.845Z,41.30
2018-07-25T17:17:59.820Z,44.50
2018-07-25T17:20:30.593Z,43.20
2018-07-25T17:23:01.313Z,42.50
2018-07-25T17:25:42.670Z,41.20
2018-07-25T17:28:13.369Z,40.90
2018-07-25T17:30:49.055Z,43.20
2018-07-25T17:33:21.126Z,43.50
2018-07-25T17:35:52.832Z,42.30
2018-07-25T17:38:34.268Z,42.50
2018-07-25T17:41:10.647Z,46.40
2018-07-25T17:43:40.491Z,45.40
2018-07-25T17:46:10.554Z,46.10
2018-07-25T17:48:47.463Z,44.50
2018-07-25T17:51:17.693Z,45.30
2018-07-25T17:54:01.857Z,46.60
2018-07-25T17:56:32.111Z,49.10
2018-07-25T17:59:03.442Z,47.00
2018-07-25T18:01:33.371Z,48.10
2018-07-25T18:04:03.191Z,47.90
2018-07-25T18:06:33.381Z,48.00
2018-07-25T18:09:03.864Z,50.50
2018-07-25T18:11:33.897Z,49.30
2018-07-25T18:14:09.207Z,51.70
2018-07-25T18:16:39.021Z,50.50
2018-07-25T18:19:10.298Z,52.40
2018-07-25T18:21:41.298Z,50.10
2018-07-25T18:24:11.742Z,51.60
2018-07-25T18:26:41.846Z,51.40
2018-07-25T18:29:13.225Z,52.90
2018-07-25T18:31:43.580Z,53.80
2018-07-25T18:34:19.987Z,51.10
2018-07-25T18:36:51.293Z,53.00
2018-07-25T18:39:22.416Z,52.30
2018-07-25T18:41:52.822Z,54.00
2018-07-25T18:44:23.052Z,52.30
2018-07-25T18:46:55.251Z,51.80
2018-07-25T18:49:25.515Z,51.80
2018-07-25T18:51:55.639Z,52.10
2018-07-25T18:54:26.279Z,53.20
2018-07-25T18:56:56.095Z,51.90
2018-07-25T18:59:26.053Z,50.80
2018-07-25T19:01:57.167Z,51.90
2018-07-25T19:04:27.124Z,51.00
2018-07-25T19:07:11.392Z,51.00
2018-07-25T19:09:56.588Z,51.90
2018-07-25T19:12:28.264Z,51.50
2018-07-25T19:15:11.756Z,50.80
2018-07-25T19:17:41.697Z,51.70
2018-07-25T19:20:13.988Z,51.40
2018-07-25T19:22:44.169Z,52.40
2018-07-25T19:25:18.388Z,52.00
2018-07-25T19:27:49.699Z,51.40
2018-07-25T19:30:19.857Z,52.50
2018-07-25T19:32:51.374Z,52.10
2018-07-25T19:35:23.949Z,53.00
2018-07-25T19:37:54.264Z,53.50
2018-07-25T19:40:24.129Z,53.60
2018-07-25T19:45:37.186Z,53.40
2018-07-25T19:48:12.229Z,54.90
2018-07-25T19:50:42.304Z,54.30
2018-07-25T19:53:12.230Z,54.20
2018-07-25T19:55:42.031Z,54.80
2018-07-25T19:58:19.088Z,54.80
2018-07-25T20:00:49.221Z,54.50
2018-07-25T20:03:19.825Z,55.00
2018-07-25T20:05:49.801Z,55.60
2018-07-25T20:08:24.467Z,55.50
2018-07-25T20:10:54.645Z,56.00
2018-07-25T20:13:24.538Z,57.30
2018-07-25T20:15:58.740Z,56.40
2018-07-25T20:18:31.392Z,59.20
2018-07-25T20:21:02.743Z,56.80
2018-07-25T20:23:34.692Z,57.20
2018-07-25T20:26:05.544Z,58.00
2018-07-25T20:28:36.580Z,59.70
2018-07-25T20:31:06.695Z,58.90
2018-07-25T20:33:37.618Z,60.00
2018-07-25T20:36:10.504Z,59.60
2018-07-25T20:38:40.628Z,59.50
2018-07-25T20:41:10.318Z,59.10
2018-07-25T20:43:41.286Z,59.30
2018-07-25T20:46:12.926Z,59.50
2018-07-25T20:48:43.793Z,61.20
2018-07-25T20:51:22.857Z,61.70
2018-07-25T20:53:53.502Z,63.40
2018-07-25T20:56:25.814Z,61.70
2018-07-25T20:58:57.022Z,61.60
2018-07-25T21:01:26.855Z,62.10
2018-07-25T21:03:57.855Z,62.10
2018-07-25T21:06:29.322Z,63.10
2018-07-25T21:09:01.036Z,62.30
2018-07-25T21:11:35.558Z,63.20
2018-07-25T21:14:08.782Z,63.50
2018-07-25T21:16:40.218Z,64.00
2018-07-25T21:19:10.676Z,63.80
2018-07-25T21:21:43.525Z,64.30
2018-07-25T21:24:15.227Z,63.50
2018-07-25T21:26:47.341Z,63.60
2018-07-25T21:29:18.702Z,64.60
2018-07-25T21:31:54.797Z,63.60
2018-07-25T21:34:27.021Z,65.20
2018-07-25T21:36:59.825Z,65.20
2018-07-25T21:39:45.147Z,64.00
2018-07-25T21:42:14.844Z,65.40
2018-07-25T21:44:44.912Z,65.10
2018-07-25T21:47:14.908Z,65.10
2018-07-25T21:49:44.787Z,66.90
2018-07-25T21:52:15.015Z,66.10
2018-07-25T21:54:44.667Z,64.10
2018-07-25T21:57:14.437Z,65.60
2018-07-25T21:59:44.742Z,65.90
2018-07-25T22:02:14.512Z,66.90
2018-07-25T22:04:44.233Z,67.10
2018-07-25T22:07:13.814Z,67.10
2018-07-25T22:09:47.204Z,67.50
2018-07-25T22:12:30.685Z,67.40
2018-07-25T22:15:08.026Z,68.20
2018-07-25T22:17:38.424Z,68.40
2018-07-25T22:20:14.267Z,67.70
2018-07-25T22:22:44.075Z,70.00
2018-07-25T22:25:14.012Z,68.30
2018-07-25T22:27:43.752Z,68.80
2018-07-25T22:30:13.793Z,70.20
2018-07-25T22:32:43.513Z,70.40
2018-07-25T22:35:13.411Z,70.10
2018-07-25T22:37:50.160Z,69.80
2018-07-25T22:40:20.039Z,70.40
2018-07-25T22:45:26.868Z,70.30
2018-07-25T22:47:56.687Z,70.60
2018-07-25T22:50:31.688Z,71.00
2018-07-25T22:53:01.769Z,71.30
2018-07-25T22:55:35.936Z,71.30
2018-07-25T22:58:06.165Z,71.50
2018-07-25T23:00:36.122Z,71.60
2018-07-25T23:03:18.940Z,70.50
2018-07-25T23:05:48.861Z,71.10
2018-07-25T23:08:18.411Z,72.30
2018-07-25T23:10:48.235Z,70.80
2018-07-25T23:13:18.072Z,71.30
2018-07-25T23:15:47.653Z,71.80
2018-07-25T23:18:17.327Z,72.20
2018-07-25T23:20:47.190Z,72.10
2018-07-25T23:23:23.587Z,72.80
2018-07-25T23:25:53.255Z,73.30
2018-07-25T23:28:29.779Z,73.20
2018-07-25T23:30:59.660Z,73.20
2018-07-25T23:33:34.791Z,72.30
2018-07-25T23:36:04.374Z,72.40
2018-07-25T23:38:34.254Z,72.70
2018-07-25T23:41:10.781Z,71.90
2018-07-25T23:43:46.077Z,73.70
2018-07-25T23:46:15.962Z,73.80
2018-07-25T23:48:46.293Z,73.50
2018-07-25T23:51:15.901Z,73.70
2018-07-25T23:53:45.586Z,73.50
2018-07-25T23:56:16.093Z,73.70
2018-07-25T23:58:46.043Z,74.40
